Time;durP1;ratioP1;P1;durP2;ratioP2;P2;SDS_P1;SDS_P2;PMS_P1;PMS_P2;Temp;Humidity;BMP_temperature;BMP_pressure;BME280_temperature;BME280_humidity;BME280_pressure;Samples;Min_cycle;Max_cycle;Signal;HPM_P1;HPM_P2
2022/12/21 00:01:54;;;;;;;16.13;9.47;;;11.90;99.90;;;;;;5026746;28;20559;-61
2022/12/21 00:04:21;;;;;;;14.13;8.10;;;11.80;99.90;;;;;;5043086;28;20474;-62
2022/12/21 00:06:48;;;;;;;27.07;11.50;;;;;;;;;;5039836;28;20599;-62
2022/12/21 00:09:16;;;;;;;21.70;8.17;;;11.80;99.90;;;;;;5052206;28;20471;-61
2022/12/21 00:11:43;;;;;;;29.00;12.03;;;11.90;99.90;;;;;;5031521;28;22664;-61
2022/12/21 00:14:10;;;;;;;21.33;10.33;;;11.80;99.90;;;;;;5031682;28;20480;-61
2022/12/21 00:16:39;;;;;;;27.17;12.67;;;11.80;99.90;;;;;;5031481;28;20922;-60
2022/12/21 00:19:06;;;;;;;19.93;10.03;;;11.80;99.90;;;;;;5031673;28;20468;-60
2022/12/21 00:21:34;;;;;;;15.90;7.70;;;11.90;99.90;;;;;;5031091;28;20477;-60
2022/12/21 00:24:01;;;;;;;19.60;9.80;;;11.70;99.90;;;;;;5032522;28;20542;-61
2022/12/21 00:26:31;;;;;;;19.03;9.70;;;11.80;99.90;;;;;;5031507;28;20476;-61
2022/12/21 00:28:59;;;;;;;17.20;8.60;;;11.80;99.90;;;;;;5052480;28;20495;-61
2022/12/21 00:31:27;;;;;;;18.67;9.80;;;11.80;99.90;;;;;;5037637;28;20478;-61
2022/12/21 00:33:55;;;;;;;17.30;8.33;;;11.80;99.90;;;;;;5045071;28;20684;-61
2022/12/21 00:36:23;;;;;;;21.67;6.93;;;11.80;99.90;;;;;;5012290;28;20481;-61
2022/12/21 00:38:50;;;;;;;19.13;9.97;;;11.90;99.90;;;;;;5017209;28;20512;-60
2022/12/21 00:41:19;;;;;;;17.53;10.03;;;11.70;99.90;;;;;;5015543;28;20492;-62
2022/12/21 00:43:49;;;;;;;24.30;9.93;;;11.90;99.90;;;;;;5012442;28;20731;-60
2022/12/21 00:46:17;;;;;;;8.47;5.13;;;11.90;99.90;;;;;;5027623;28;20967;-60
2022/12/21 00:48:44;;;;;;;32.93;14.43;;;11.90;99.90;;;;;;5046083;28;20480;-61
2022/12/21 00:51:13;;;;;;;18.93;7.73;;;11.90;99.90;;;;;;5014859;28;20481;-61
2022/12/21 00:53:40;;;;;;;19.30;9.77;;;11.90;99.90;;;;;;5024945;28;20955;-60
2022/12/21 00:56:08;;;;;;;19.80;9.30;;;11.90;99.90;;;;;;5011218;28;20871;-60
2022/12/21 00:58:36;;;;;;;26.33;11.20;;;12.00;99.90;;;;;;5015523;28;20545;-61
2022/12/21 01:01:07;;;;;;;13.97;7.20;;;11.90;99.90;;;;;;5015729;28;20554;-61
2022/12/21 01:03:34;;;;;;;29.10;10.80;;;12.00;99.90;;;;;;5014584;28;20494;-61
2022/12/21 01:06:01;;;;;;;14.67;8.73;;;11.90;99.90;;;;;;5013336;28;20485;-61
2022/12/21 01:08:28;;;;;;;14.17;7.20;;;11.90;99.90;;;;;;5024499;28;20484;-60
2022/12/21 01:10:57;;;;;;;15.07;6.70;;;11.90;99.90;;;;;;5030457;28;20480;-61
2022/12/21 01:13:24;;;;;;;13.77;7.30;;;11.90;99.90;;;;;;5022634;28;20477;-61
2022/12/21 01:15:51;;;;;;;16.40;7.60;;;12.00;99.90;;;;;;5023815;28;20476;-61
2022/12/21 01:18:19;;;;;;;15.10;9.20;;;11.90;99.90;;;;;;5017412;28;21289;-62
2022/12/21 01:20:48;;;;;;;20.63;8.30;;;11.90;99.90;;;;;;5010057;28;20489;-61
2022/12/21 01:23:15;;;;;;;15.07;7.70;;;11.90;99.90;;;;;;5015221;28;20481;-62
2022/12/21 01:25:43;;;;;;;16.57;8.70;;;11.90;99.90;;;;;;5023385;28;20476;-61
2022/12/21 01:28:10;;;;;;;12.80;6.73;;;12.00;99.90;;;;;;5021931;28;20480;-61
2022/12/21 01:30:38;;;;;;;21.77;8.63;;;12.00;99.90;;;;;;5024336;28;20488;-62
2022/12/21 01:33:05;;;;;;;18.27;7.70;;;12.00;99.90;;;;;;5019330;28;21027;-62
2022/12/21 01:35:33;;;;;;;20.50;10.07;;;12.00;99.90;;;;;;5019682;28;20563;-62
2022/12/21 01:38:00;;;;;;;12.97;7.30;;;12.10;99.90;;;;;;5014042;28;21043;-61
2022/12/21 01:40:30;;;;;;;14.70;5.97;;;12.00;99.90;;;;;;5009634;28;20511;-61
2022/12/21 01:42:57;;;;;;;16.40;7.30;;;12.10;99.90;;;;;;5008040;28;20480;-62
2022/12/21 01:45:27;;;;;;;17.57;8.50;;;12.10;99.90;;;;;;5023962;28;20473;-63
2022/12/21 01:47:56;;;;;;;9.77;3.87;;;12.20;99.90;;;;;;5018866;28;20481;-61
2022/12/21 01:50:30;;;;;;;15.87;7.10;;;12.20;99.90;;;;;;5007858;28;20477;-62
2022/12/21 01:53:02;;;;;;;6.63;4.23;;;12.20;99.90;;;;;;5011611;28;20477;-62
2022/12/21 01:55:30;;;;;;;7.30;4.17;;;12.20;99.90;;;;;;5011074;28;20477;-62
2022/12/21 01:57:58;;;;;;;9.70;5.93;;;12.20;99.90;;;;;;5012029;28;20742;-62
2022/12/21 02:00:25;;;;;;;12.97;4.93;;;12.10;99.90;;;;;;5014865;28;21398;-62
2022/12/21 02:02:55;;;;;;;8.30;5.10;;;12.20;99.90;;;;;;5018983;28;20840;-62
2022/12/21 02:05:29;;;;;;;13.53;7.00;;;12.30;99.90;;;;;;5011735;28;20501;-62
2022/12/21 02:08:00;;;;;;;9.77;5.57;;;12.30;99.90;;;;;;5026587;28;20487;-62
2022/12/21 02:10:27;;;;;;;12.30;6.47;;;12.20;99.90;;;;;;5020101;28;20484;-61
2022/12/21 02:13:00;;;;;;;12.00;6.73;;;12.10;99.90;;;;;;5018258;28;20480;-62
2022/12/21 02:15:42;;;;;;;17.50;9.00;;;12.20;99.90;;;;;;5029408;28;20475;-62
2022/12/21 02:18:18;;;;;;;16.90;6.67;;;12.20;99.90;;;;;;5006594;28;20485;-62
2022/12/21 02:21:23;;;;;;;20.43;9.73;;;12.10;99.90;;;;;;5024750;28;21203;-62
2022/12/21 02:24:37;;;;;;;11.20;5.87;;;12.20;99.90;;;;;;5011840;28;20469;-62
2022/12/21 02:27:37;;;;;;;11.03;5.43;;;12.20;99.90;;;;;;5014516;28;20473;-63
2022/12/21 02:30:08;;;;;;;20.00;9.23;;;12.10;99.90;;;;;;5016849;28;20514;-61
2022/12/21 02:32:48;;;;;;;19.90;9.23;;;12.10;99.90;;;;;;5012231;28;20490;-62
2022/12/21 02:35:26;;;;;;;12.87;6.53;;;12.20;99.90;;;;;;5018559;28;20484;-62
2022/12/21 02:38:01;;;;;;;8.20;4.17;;;12.10;99.90;;;;;;5013282;28;20480;-61
2022/12/21 02:40:36;;;;;;;14.87;8.30;;;12.20;99.90;;;;;;5013068;28;22025;-61
2022/12/21 02:46:00;;;;;;;14.03;6.00;;;12.20;99.90;;;;;;5018750;28;20480;-62
2022/12/21 02:48:35;;;;;;;12.50;6.00;;;12.20;99.90;;;;;;5012662;28;20894;-62
2022/12/21 02:51:06;;;;;;;14.87;7.47;;;12.20;99.90;;;;;;5017976;28;21015;-61
2022/12/21 02:53:36;;;;;;;10.73;5.60;;;12.20;99.90;;;;;;5033580;28;20488;-61
2022/12/21 02:56:04;;;;;;;13.13;4.73;;;12.20;99.90;;;;;;5035165;28;20984;-61
2022/12/21 02:58:30;;;;;;;13.07;6.67;;;12.20;99.90;;;;;;5032887;28;20488;-62
2022/12/21 03:01:08;;;;;;;5.67;4.00;;;12.20;99.90;;;;;;5023189;28;20483;-62
2022/12/21 03:04:13;;;;;;;23.00;11.43;;;12.10;99.90;;;;;;5007564;28;20484;-61
2022/12/21 03:07:03;;;;;;;21.97;8.90;;;12.10;99.90;;;;;;5027141;28;20520;-61
2022/12/21 03:09:46;;;;;;;11.70;6.40;;;12.20;99.90;;;;;;5036408;28;20571;-62
2022/12/21 03:12:20;;;;;;;11.83;5.80;;;12.10;99.90;;;;;;5019879;28;20531;-62
2022/12/21 03:14:53;;;;;;;18.83;8.77;;;12.20;99.90;;;;;;5037423;28;20741;-62
2022/12/21 03:17:29;;;;;;;9.67;5.13;;;12.10;99.90;;;;;;5034074;28;20533;-62
2022/12/21 03:20:05;;;;;;;19.43;9.13;;;12.10;99.90;;;;;;5026674;28;20492;-61
2022/12/21 03:22:37;;;;;;;10.63;6.10;;;12.10;99.90;;;;;;5019225;28;20550;-62
2022/12/21 03:25:10;;;;;;;8.53;5.03;;;12.10;99.90;;;;;;5006846;28;20975;-62
2022/12/21 03:27:44;;;;;;;19.77;8.20;;;12.10;99.90;;;;;;5017521;28;20461;-61
2022/12/21 03:30:14;;;;;;;15.30;8.03;;;12.10;99.90;;;;;;5016152;28;20489;-63
2022/12/21 03:32:46;;;;;;;20.17;10.03;;;12.10;99.90;;;;;;5015728;28;20893;-62
2022/12/21 03:35:29;;;;;;;8.83;5.63;;;12.10;99.90;;;;;;5017977;28;20481;-61
2022/12/21 03:37:58;;;;;;;8.00;4.83;;;12.00;99.90;;;;;;5010518;28;20485;-61
2022/12/21 03:40:27;;;;;;;11.77;6.17;;;12.00;99.90;;;;;;5031289;28;20497;-62
2022/12/21 03:43:00;;;;;;;6.13;3.70;;;12.10;99.90;;;;;;5019916;28;20493;-61
2022/12/21 03:45:30;;;;;;;18.80;5.87;;;12.10;99.90;;;;;;5033439;28;21091;-62
2022/12/21 03:48:04;;;;;;;9.63;5.17;;;12.00;99.90;;;;;;5020614;28;21829;-61
2022/12/21 03:50:36;;;;;;;14.37;5.33;;;11.90;99.90;;;;;;5023172;28;21054;-62
2022/12/21 03:53:09;;;;;;;10.07;5.27;;;11.80;99.90;;;;;;5016878;28;20531;-61
2022/12/21 03:55:38;;;;;;;11.67;6.13;;;12.00;99.90;;;;;;5035743;28;20488;-62
2022/12/21 03:58:06;;;;;;;17.53;6.37;;;12.10;99.90;;;;;;5036613;28;20472;-62
2022/12/21 04:00:43;;;;;;;11.03;5.73;;;12.10;99.90;;;;;;5026762;28;20545;-62
2022/12/21 04:03:15;;;;;;;16.73;5.40;;;12.00;99.90;;;;;;5034883;28;20577;-62
2022/12/21 04:05:50;;;;;;;18.33;8.93;;;12.10;99.90;;;;;;5034601;28;20550;-62
2022/12/21 04:08:17;;;;;;;11.57;5.87;;;12.00;99.90;;;;;;5037247;28;20561;-62
2022/12/21 04:10:44;;;;;;;18.50;8.07;;;12.00;99.90;;;;;;5033443;28;20519;-62
2022/12/21 04:13:09;;;;;;;11.70;5.83;;;12.10;99.90;;;;;;5038007;28;20538;-62
2022/12/21 04:19:57;;;;;;;14.60;7.90;;;12.00;99.90;;;;;;5014984;28;20233;-62
2022/12/21 04:21:07;;;;;;;12.23;4.00;;;12.10;99.90;;;;;;5006154;28;20516;-62
2022/12/21 04:29:03;;;;;;;18.10;6.67;;;12.00;99.90;;;;;;5035556;28;20832;-63
2022/12/21 04:31:30;;;;;;;8.80;4.67;;;12.00;99.90;;;;;;5033706;28;20976;-62
2022/12/21 04:33:57;;;;;;;12.43;6.20;;;12.00;99.90;;;;;;5028845;28;20472;-62
2022/12/21 04:39:09;;;;;;;13.13;6.50;;;12.00;99.90;;;;;;5015297;28;20499;-61
2022/12/21 04:41:36;;;;;;;16.43;7.30;;;12.10;99.90;;;;;;5014897;28;20506;-61
2022/12/21 04:44:03;;;;;;;12.10;6.33;;;12.10;99.90;;;;;;5016686;28;20781;-61
2022/12/21 04:46:29;;;;;;;11.37;6.20;;;11.90;99.90;;;;;;5015933;28;20464;-62
2022/12/21 04:48:56;;;;;;;7.40;4.17;;;12.10;99.90;;;;;;5015865;28;20484;-61
2022/12/21 04:51:26;;;;;;;15.10;7.43;;;12.00;99.90;;;;;;5013514;28;20477;-62
2022/12/21 04:53:53;;;;;;;13.63;5.40;;;12.10;99.90;;;;;;5029916;28;20485;-62
2022/12/21 04:56:20;;;;;;;7.53;4.13;;;12.10;99.90;;;;;;5035919;28;20484;-62
2022/12/21 04:58:47;;;;;;;16.53;7.37;;;12.10;99.90;;;;;;5035506;28;20472;-62
2022/12/21 05:01:16;;;;;;;11.00;5.70;;;12.10;99.90;;;;;;5035105;28;20484;-62
2022/12/21 05:03:43;;;;;;;26.27;11.37;;;11.90;99.90;;;;;;5035647;28;20476;-62
2022/12/21 05:06:11;;;;;;;24.53;5.00;;;12.10;99.90;;;;;;5036067;28;20476;-61
2022/12/21 05:08:39;;;;;;;22.53;9.77;;;12.10;99.90;;;;;;5023508;28;20955;-62
2022/12/21 05:11:10;;;;;;;12.00;5.80;;;12.00;99.90;;;;;;5034825;28;20476;-62
2022/12/21 05:13:37;;;;;;;23.63;8.77;;;12.00;99.90;;;;;;5024624;28;20561;-62
2022/12/21 05:16:04;;;;;;;11.63;5.80;;;12.00;99.90;;;;;;5035104;28;20488;-61
2022/12/21 05:18:31;;;;;;;14.67;7.50;;;11.90;99.90;;;;;;5027591;28;20871;-62
2022/12/21 05:20:58;;;;;;;10.27;4.23;;;12.00;99.90;;;;;;5013892;28;20505;-63
2022/12/21 05:23:24;;;;;;;10.40;5.30;;;12.10;99.90;;;;;;5016411;28;20589;-61
2022/12/21 05:25:52;;;;;;;11.03;5.50;;;12.00;99.90;;;;;;5015280;28;20846;-62
2022/12/21 05:28:19;;;;;;;15.63;4.70;;;12.10;99.90;;;;;;5014623;28;20485;-61
2022/12/21 05:30:46;;;;;;;20.80;8.93;;;12.70;99.90;;;;;;5013777;28;20559;-61
2022/12/21 05:33:12;;;;;;;8.77;5.17;;;12.20;99.90;;;;;;5016504;28;20543;-62
2022/12/21 05:35:39;;;;;;;26.30;10.10;;;12.20;99.90;;;;;;5009438;28;20496;-61
2022/12/21 05:38:06;;;;;;;13.83;6.97;;;12.20;99.90;;;;;;5034377;28;20469;-62
2022/12/21 05:40:34;;;;;;;9.70;4.90;;;12.10;99.90;;;;;;5020078;28;20496;-62
2022/12/21 05:43:02;;;;;;;14.37;5.03;;;12.20;99.90;;;;;;5030807;28;20886;-61
2022/12/21 05:45:29;;;;;;;14.00;6.47;;;12.20;99.90;;;;;;5033213;28;20512;-62
2022/12/21 05:47:55;;;;;;;9.47;4.37;;;12.20;99.90;;;;;;5034637;28;20476;-62
2022/12/21 05:50:22;;;;;;;19.10;5.87;;;12.20;99.90;;;;;;5031032;28;20484;-62
2022/12/21 05:52:49;;;;;;;23.30;8.10;;;12.20;99.90;;;;;;5030014;28;20480;-61
2022/12/21 05:55:16;;;;;;;14.13;5.40;;;12.10;99.90;;;;;;5035178;28;20711;-62
2022/12/21 05:57:44;;;;;;;22.63;8.47;;;12.20;99.90;;;;;;5035277;28;20494;-61
2022/12/21 06:00:13;;;;;;;18.00;7.87;;;12.20;99.90;;;;;;5019755;28;21062;-62
2022/12/21 06:02:40;;;;;;;23.33;8.87;;;12.30;99.90;;;;;;5018765;28;20903;-61
2022/12/21 06:05:07;;;;;;;10.00;4.17;;;12.30;99.90;;;;;;5013478;28;20542;-62
2022/12/21 06:07:35;;;;;;;18.87;8.77;;;12.20;99.90;;;;;;5018474;28;20990;-62
2022/12/21 06:10:02;;;;;;;22.60;8.20;;;12.30;99.90;;;;;;5008371;28;20489;-62
2022/12/21 06:12:29;;;;;;;17.60;4.50;;;12.30;99.90;;;;;;5007081;28;20488;-62
2022/12/21 06:14:56;;;;;;;15.47;5.00;;;12.30;99.90;;;;;;5025304;28;20484;-62
2022/12/21 06:17:26;;;;;;;13.30;5.87;;;12.30;99.90;;;;;;5015184;28;20472;-61
2022/12/21 06:19:53;;;;;;;16.33;6.43;;;12.40;99.90;;;;;;5013373;28;20627;-62
2022/12/21 06:22:19;;;;;;;11.93;4.97;;;12.20;99.90;;;;;;5013364;28;20491;-60
2022/12/21 06:24:48;;;;;;;19.67;8.80;;;;;;;;;;5016175;28;20483;-62
2022/12/21 06:27:15;;;;;;;10.83;5.17;;;12.30;99.90;;;;;;5020713;28;20598;-62
2022/12/21 06:29:41;;;;;;;23.30;10.13;;;12.20;99.90;;;;;;5018580;28;20841;-61
2022/12/21 06:32:08;;;;;;;11.20;5.37;;;12.20;99.90;;;;;;5015242;28;20488;-63
2022/12/21 06:34:36;;;;;;;18.17;7.97;;;12.20;99.90;;;;;;5018657;28;20494;-62
2022/12/21 06:37:03;;;;;;;14.73;6.93;;;12.30;99.90;;;;;;5036162;28;20649;-62
2022/12/21 06:39:30;;;;;;;12.53;5.80;;;;;;;;;;5038717;28;21193;-63
2022/12/21 06:41:57;;;;;;;7.07;4.23;;;12.20;99.90;;;;;;5032811;28;20930;-61
2022/12/21 06:44:24;;;;;;;12.07;6.20;;;12.30;99.90;;;;;;5039405;28;20476;-62
2022/12/21 06:46:50;;;;;;;15.33;7.63;;;12.30;99.90;;;;;;5037295;28;20488;-60
2022/12/21 06:49:17;;;;;;;10.20;5.37;;;10.00;99.90;;;;;;5038738;28;20962;-61
2022/12/21 06:51:45;;;;;;;17.00;7.63;;;12.20;99.90;;;;;;5034320;28;20476;-62
2022/12/21 06:54:12;;;;;;;13.03;5.60;;;;;;;;;;5037037;28;20464;-62
2022/12/21 06:56:39;;;;;;;27.77;12.30;;;12.30;99.90;;;;;;5038336;28;21053;-61
2022/12/21 06:59:06;;;;;;;15.40;7.53;;;12.30;99.90;;;;;;5037175;28;20488;-61
2022/12/21 07:01:34;;;;;;;13.43;6.83;;;;;;;;;;5033985;28;20900;-61
2022/12/21 07:04:01;;;;;;;12.47;6.30;;;12.40;99.90;;;;;;5037748;28;20550;-61
2022/12/21 07:06:29;;;;;;;10.30;4.87;;;12.40;99.90;;;;;;5036480;28;20492;-62
2022/12/21 07:08:58;;;;;;;9.70;4.57;;;12.30;99.90;;;;;;5037859;28;20809;-61
2022/12/21 07:11:27;;;;;;;15.67;8.37;;;12.30;99.90;;;;;;5033612;28;20479;-61
2022/12/21 07:13:55;;;;;;;9.90;5.30;;;12.20;99.90;;;;;;5036505;28;20472;-61
2022/12/21 07:16:22;;;;;;;23.03;4.60;;;12.30;99.90;;;;;;5036866;28;20491;-60
2022/12/21 07:18:49;;;;;;;16.03;8.43;;;12.20;99.90;;;;;;5033309;28;20547;-62
2022/12/21 07:21:18;;;;;;;13.40;7.27;;;12.30;99.90;;;;;;5019018;28;20520;-61
2022/12/21 07:23:45;;;;;;;15.80;7.77;;;12.20;99.90;;;;;;5017942;28;21667;-61
2022/12/21 07:26:16;;;;;;;10.60;5.97;;;12.30;99.90;;;;;;5017128;28;20484;-61
2022/12/21 07:28:44;;;;;;;21.27;10.73;;;12.30;99.90;;;;;;5013473;28;20493;-61
2022/12/21 07:31:12;;;;;;;21.33;7.50;;;12.30;99.90;;;;;;5013990;28;20916;-61
2022/12/21 07:33:40;;;;;;;23.37;9.87;;;12.30;99.90;;;;;;5016116;28;21205;-61
2022/12/21 07:36:08;;;;;;;7.80;4.10;;;12.40;99.90;;;;;;5016797;28;20492;-61
2022/12/21 07:38:37;;;;;;;18.87;7.47;;;12.40;99.90;;;;;;5017508;28;21159;-61
2022/12/21 07:41:05;;;;;;;10.40;5.97;;;12.40;99.90;;;;;;5015394;28;21192;-61
2022/12/21 07:43:34;;;;;;;12.47;6.53;;;12.40;99.90;;;;;;5017600;28;20489;-62
2022/12/21 07:46:02;;;;;;;10.77;6.03;;;12.30;99.90;;;;;;5012943;28;21173;-61
2022/12/21 07:48:28;;;;;;;11.57;6.50;;;12.30;99.90;;;;;;5015038;28;20473;-61
2022/12/21 07:50:55;;;;;;;9.20;4.40;;;12.40;99.90;;;;;;5029792;28;20477;-61
2022/12/21 07:53:22;;;;;;;13.10;6.10;;;12.40;99.90;;;;;;5034320;28;21015;-61
2022/12/21 07:55:49;;;;;;;13.53;6.33;;;12.40;99.90;;;;;;5021471;28;20479;-61
2022/12/21 07:58:16;;;;;;;11.20;5.67;;;;;;;;;;5037366;28;20475;-61
2022/12/21 08:00:45;;;;;;;23.43;11.40;;;12.40;99.90;;;;;;5034097;28;20483;-61
2022/12/21 08:03:12;;;;;;;11.37;5.77;;;12.40;99.90;;;;;;5030407;28;20947;-61
2022/12/21 08:05:38;;;;;;;22.07;10.37;;;12.40;99.90;;;;;;5027815;28;20525;-61
2022/12/21 08:08:05;;;;;;;10.63;6.50;;;12.40;99.90;;;;;;5018854;28;20909;-62
2022/12/21 08:10:32;;;;;;;11.07;5.67;;;12.40;99.90;;;;;;5023066;28;20867;-61
2022/12/21 08:12:59;;;;;;;6.97;5.20;;;12.20;99.90;;;;;;5033252;28;20488;-61
2022/12/21 08:15:25;;;;;;;10.17;5.40;;;12.40;99.90;;;;;;5033489;28;20530;-61
2022/12/21 08:17:53;;;;;;;10.73;5.17;;;12.40;99.90;;;;;;5036990;28;20601;-61
2022/12/21 08:20:21;;;;;;;10.53;6.10;;;12.40;99.90;;;;;;5023743;28;20677;-61
2022/12/21 08:22:49;;;;;;;20.43;10.83;;;12.40;99.90;;;;;;5034982;28;20492;-61
2022/12/21 08:25:15;;;;;;;13.30;5.60;;;12.40;99.90;;;;;;5035658;28;20511;-61
2022/12/21 08:27:42;;;;;;;24.50;11.03;;;12.40;99.90;;;;;;5034734;28;20905;-61
2022/12/21 08:30:10;;;;;;;15.83;8.87;;;12.50;99.90;;;;;;5031400;28;20492;-61
2022/12/21 08:32:37;;;;;;;20.20;10.70;;;12.40;99.90;;;;;;5020125;28;20486;-60
2022/12/21 08:35:06;;;;;;;12.07;6.10;;;12.40;99.90;;;;;;5017171;28;20485;-60
2022/12/21 08:37:32;;;;;;;8.97;4.90;;;12.50;99.90;;;;;;5016991;28;20993;-60
2022/12/21 08:39:59;;;;;;;13.47;7.40;;;12.40;99.90;;;;;;5014102;28;20964;-60
2022/12/21 08:42:26;;;;;;;9.20;5.53;;;12.50;99.90;;;;;;5017097;28;20889;-60
2022/12/21 08:44:52;;;;;;;13.00;5.90;;;12.50;99.90;;;;;;5014722;28;20488;-61
2022/12/21 08:47:19;;;;;;;9.17;6.00;;;12.50;99.90;;;;;;5015990;28;20878;-61
2022/12/21 08:49:46;;;;;;;23.27;9.03;;;12.40;99.90;;;;;;5015595;28;20921;-61
2022/12/21 08:52:14;;;;;;;8.47;5.10;;;12.50;99.90;;;;;;5013482;28;20542;-61
2022/12/21 08:54:40;;;;;;;19.83;10.27;;;12.50;99.90;;;;;;5016920;28;20535;-61
2022/12/21 08:57:07;;;;;;;10.13;6.20;;;12.50;99.90;;;;;;5016387;28;20576;-62
2022/12/21 08:59:34;;;;;;;8.60;5.00;;;12.60;99.90;;;;;;5019628;28;20746;-62
2022/12/21 09:02:01;;;;;;;9.80;5.40;;;12.50;99.90;;;;;;5016622;28;20485;-61
2022/12/21 09:04:27;;;;;;;13.87;4.80;;;12.50;99.90;;;;;;5015554;28;20503;-61
2022/12/21 09:06:54;;;;;;;10.97;6.77;;;12.50;99.90;;;;;;5016666;28;20914;-61
2022/12/21 09:09:22;;;;;;;9.50;5.10;;;12.40;99.90;;;;;;5034485;28;20893;-61
2022/12/21 09:11:48;;;;;;;15.53;6.20;;;12.40;99.90;;;;;;5014573;28;20558;-61
2022/12/21 09:14:15;;;;;;;8.80;5.40;;;;;;;;;;5016536;28;20563;-61
2022/12/21 09:16:42;;;;;;;24.40;12.90;;;12.30;99.90;;;;;;5015507;28;20559;-61
2022/12/21 09:19:09;;;;;;;8.97;5.60;;;12.40;99.90;;;;;;5015498;28;20535;-62
2022/12/21 09:21:35;;;;;;;10.07;5.67;;;12.40;99.90;;;;;;5011609;28;20620;-61
2022/12/21 09:24:02;;;;;;;11.83;6.60;;;12.50;99.90;;;;;;5014730;28;20526;-62
2022/12/21 09:26:30;;;;;;;8.30;5.33;;;12.50;99.90;;;;;;5014429;28;20481;-62
2022/12/21 09:28:57;;;;;;;7.20;4.40;;;12.50;99.90;;;;;;5015638;28;20477;-62
2022/12/21 09:31:24;;;;;;;11.40;5.93;;;12.50;99.90;;;;;;5016919;28;20476;-61
2022/12/21 09:33:51;;;;;;;10.93;6.23;;;12.50;99.90;;;;;;5023302;28;20489;-62
2022/12/21 09:36:19;;;;;;;7.73;4.70;;;12.50;99.90;;;;;;5023943;28;20584;-62
2022/12/21 09:38:46;;;;;;;17.07;8.23;;;12.60;99.90;;;;;;5023030;28;20567;-61
2022/12/21 09:41:53;;;;;;;18.00;7.20;;;12.50;99.90;;;;;;5020909;28;20481;-62
2022/12/21 09:44:36;;;;;;;12.23;7.13;;;12.50;99.90;;;;;;4999199;28;20483;-62
2022/12/21 09:47:07;;;;;;;9.20;4.80;;;12.60;99.90;;;;;;5015600;28;20473;-61
2022/12/21 09:49:40;;;;;;;10.83;6.60;;;12.50;99.90;;;;;;5015726;28;20481;-61
2022/12/21 09:52:15;;;;;;;12.40;7.13;;;12.60;99.90;;;;;;5013705;28;20489;-60
2022/12/21 09:54:48;;;;;;;24.53;11.40;;;12.50;99.90;;;;;;5013907;28;20861;-61
2022/12/21 09:57:15;;;;;;;11.73;6.83;;;12.60;99.90;;;;;;5015129;28;20997;-61
2022/12/21 09:59:43;;;;;;;22.57;11.50;;;12.60;99.90;;;;;;5016236;28;20493;-62
2022/12/21 10:02:21;;;;;;;11.70;7.23;;;12.60;99.90;;;;;;5016849;28;20477;-61
2022/12/21 10:04:57;;;;;;;15.40;8.17;;;12.70;99.90;;;;;;5023554;28;20480;-61
2022/12/21 10:07:50;;;;;;;10.57;6.40;;;12.70;99.90;;;;;;5028419;28;20890;-60
2022/12/21 10:10:23;;;;;;;9.80;6.20;;;12.70;99.90;;;;;;5034093;28;20509;-61
2022/12/21 10:13:00;;;;;;;19.03;9.00;;;12.70;99.90;;;;;;5037916;28;20472;-61
2022/12/21 10:15:34;;;;;;;12.73;6.67;;;12.90;99.90;;;;;;5027032;28;20840;-60
2022/12/21 10:18:15;;;;;;;22.37;6.83;;;12.90;99.90;;;;;;5032837;28;20534;-61
2022/12/21 10:20:53;;;;;;;20.33;11.00;;;12.80;99.90;;;;;;5018101;28;20710;-62
2022/12/21 10:23:25;;;;;;;16.67;6.70;;;12.90;99.90;;;;;;5018352;28;20499;-62
2022/12/21 10:25:57;;;;;;;12.07;6.70;;;13.10;99.90;;;;;;5017759;28;20488;-61
2022/12/21 10:28:43;;;;;;;9.30;5.03;;;13.10;99.90;;;;;;5024830;28;20964;-61
2022/12/21 10:31:15;;;;;;;14.20;8.33;;;13.10;99.90;;;;;;5031713;28;21066;-61
2022/12/21 10:33:44;;;;;;;28.20;12.47;;;13.10;99.90;;;;;;5035187;28;20557;-62
2022/12/21 10:36:16;;;;;;;14.93;8.73;;;13.00;99.90;;;;;;5037664;28;20484;-62
2022/12/21 10:38:43;;;;;;;22.20;11.70;;;13.00;99.90;;;;;;5036406;28;20476;-62
2022/12/21 10:41:14;;;;;;;16.80;6.90;;;13.10;99.90;;;;;;5037048;28;20487;-62
2022/12/21 10:43:42;;;;;;;16.80;9.13;;;13.00;99.90;;;;;;5037874;28;20746;-62
2022/12/21 10:46:08;;;;;;;9.47;5.90;;;13.00;99.90;;;;;;5039377;28;20480;-62
2022/12/21 10:48:36;;;;;;;13.87;6.03;;;13.70;99.90;;;;;;5038300;28;20557;-62
2022/12/21 10:51:15;;;;;;;15.40;8.73;;;13.10;99.90;;;;;;5032626;28;20495;-62
2022/12/21 10:53:57;;;;;;;22.40;10.70;;;13.10;99.90;;;;;;5030624;28;20805;-62
2022/12/21 10:56:25;;;;;;;11.43;4.87;;;13.10;99.90;;;;;;5020604;28;20485;-62
2022/12/21 10:58:54;;;;;;;9.33;5.13;;;13.10;99.90;;;;;;5024863;28;20972;-62
2022/12/21 11:01:24;;;;;;;8.43;4.83;;;13.10;99.90;;;;;;5030270;28;20515;-62
2022/12/21 11:04:06;;;;;;;13.63;7.30;;;;;;;;;;5036225;28;20549;-61
2022/12/21 11:06:33;;;;;;;61.83;27.60;;;13.10;99.90;;;;;;5035694;28;20471;-62
2022/12/21 11:09:00;;;;;;;9.57;5.33;;;13.10;99.90;;;;;;5029799;28;20535;-61
2022/12/21 11:11:29;;;;;;;12.13;5.07;;;13.20;99.90;;;;;;5036291;28;20487;-61
2022/12/21 11:13:58;;;;;;;7.03;4.47;;;13.20;99.90;;;;;;5027365;28;20850;-61
2022/12/21 11:16:29;;;;;;;10.63;5.87;;;13.20;99.90;;;;;;5038294;28;20479;-61
2022/12/21 11:19:01;;;;;;;6.13;3.90;;;13.30;99.90;;;;;;5004762;28;20531;-62
2022/12/21 11:21:34;;;;;;;6.73;3.90;;;13.10;99.90;;;;;;5016550;28;20555;-62
2022/12/21 11:24:06;;;;;;;6.00;3.40;;;13.00;99.90;;;;;;5012354;28;20995;-61
2022/12/21 11:26:38;;;;;;;9.40;4.90;;;13.10;99.90;;;;;;5017256;28;20489;-61
2022/12/21 11:29:07;;;;;;;13.10;5.83;;;13.00;99.90;;;;;;5023690;28;20539;-61
2022/12/21 11:31:36;;;;;;;23.93;5.47;;;13.10;99.90;;;;;;5030955;28;21111;-61
2022/12/21 11:34:04;;;;;;;9.67;4.70;;;13.10;99.90;;;;;;5038534;28;20484;-61
2022/12/21 11:36:31;;;;;;;9.93;5.43;;;13.20;99.90;;;;;;5037340;28;20908;-61
2022/12/21 11:38:58;;;;;;;13.63;4.57;;;13.20;99.90;;;;;;5039271;28;20496;-61
2022/12/21 11:41:29;;;;;;;7.63;4.47;;;13.30;99.90;;;;;;5036322;28;20507;-62
2022/12/21 11:43:57;;;;;;;7.27;4.10;;;13.40;99.90;;;;;;5026486;28;20464;-61
2022/12/21 11:46:43;;;;;;;15.20;5.30;;;13.50;99.90;;;;;;5037799;28;20483;-62
2022/12/21 11:49:39;;;;;;;10.13;6.10;;;13.50;99.90;;;;;;5026633;28;20522;-62
2022/12/21 11:52:17;;;;;;;9.67;5.60;;;13.50;99.90;;;;;;5022919;28;20546;-62
2022/12/21 11:54:53;;;;;;;17.30;6.23;;;13.50;99.90;;;;;;5037213;28;20492;-61
2022/12/21 11:57:31;;;;;;;13.17;6.83;;;13.50;99.90;;;;;;5028969;28;20480;-62
2022/12/21 12:00:06;;;;;;;13.43;4.40;;;13.60;99.90;;;;;;5024922;28;20533;-61
2022/12/21 12:02:55;;;;;;;13.97;5.80;;;13.60;99.90;;;;;;5031791;28;21073;-61
2022/12/21 12:05:34;;;;;;;8.90;5.43;;;13.50;99.90;;;;;;5037333;28;20480;-61
2022/12/21 12:08:06;;;;;;;8.13;5.20;;;13.60;99.90;;;;;;5037623;28;20518;-61
2022/12/21 12:10:47;;;;;;;13.73;6.47;;;13.50;99.90;;;;;;5033171;28;20499;-61
2022/12/21 12:13:30;;;;;;;9.43;5.60;;;13.60;99.90;;;;;;5032777;28;20996;-61
2022/12/21 12:16:05;;;;;;;11.63;4.43;;;13.50;99.90;;;;;;5027517;28;21274;-62
2022/12/21 12:18:41;;;;;;;9.30;5.60;;;13.50;99.90;;;;;;5009872;28;20559;-61
2022/12/21 12:21:28;;;;;;;9.77;6.20;;;13.40;99.90;;;;;;5033227;28;20476;-62
2022/12/21 12:24:08;;;;;;;7.50;4.67;;;13.40;99.90;;;;;;5036359;28;20472;-61
2022/12/21 12:26:46;;;;;;;16.73;8.80;;;13.40;99.90;;;;;;5026797;28;20493;-61
2022/12/21 12:29:32;;;;;;;8.00;5.77;;;13.30;99.90;;;;;;5017220;28;20477;-61
2022/12/21 12:32:14;;;;;;;6.60;5.00;;;13.40;99.90;;;;;;5013114;28;20519;-61
2022/12/21 12:35:03;;;;;;;19.97;8.23;;;13.30;99.90;;;;;;5009220;28;20481;-61
2022/12/21 12:37:37;;;;;;;10.77;6.23;;;13.10;99.90;;;;;;5016777;28;20485;-62
2022/12/21 12:40:11;;;;;;;15.33;8.40;;;13.10;99.90;;;;;;5028079;28;20929;-61
2022/12/21 12:42:42;;;;;;;19.80;10.30;;;13.10;99.90;;;;;;5008852;28;20546;-62
2022/12/21 12:45:19;;;;;;;12.60;5.50;;;13.00;99.90;;;;;;5026514;28;21173;-62
2022/12/21 12:47:52;;;;;;;19.90;10.73;;;13.00;99.90;;;;;;5036242;28;20546;-61
2022/12/21 12:50:25;;;;;;;20.83;6.13;;;12.80;99.90;;;;;;5030467;28;20976;-61
2022/12/21 12:53:15;;;;;;;18.87;8.67;;;12.70;99.90;;;;;;5023812;28;20507;-62
2022/12/21 12:55:48;;;;;;;25.17;10.33;;;12.70;99.90;;;;;;5027825;28;20488;-62
2022/12/21 12:58:21;;;;;;;15.20;7.37;;;12.80;99.90;;;;;;5028841;28;21312;-62
2022/12/21 13:00:56;;;;;;;19.00;10.30;;;12.80;99.90;;;;;;5011356;28;20477;-62
2022/12/21 13:03:34;;;;;;;12.70;7.57;;;12.90;99.90;;;;;;5010383;28;20587;-62
2022/12/21 13:06:18;;;;;;;19.03;6.77;;;12.80;99.90;;;;;;5017205;28;21022;-62
2022/12/21 13:08:54;;;;;;;22.63;11.33;;;12.80;99.90;;;;;;5030346;28;20506;-62
2022/12/21 13:11:31;;;;;;;18.43;6.53;;;12.80;99.90;;;;;;5015544;28;20489;-62
2022/12/21 13:14:04;;;;;;;13.47;7.03;;;12.80;99.90;;;;;;5013936;28;20475;-62